Airport View

Enter AWOS ICAO identifier for current METAR.

ex. KFNL

KD25 191935Z AUTO 36006KT 10SM OVC016 M07/M10 A3030 RMK AO2 T10701100

19 Jan 2020 19:37

Frequency: 118.375

Phone: 715-543-2004

Other Area AWOS: KARV - KIWD - KEGV - KLNL

TAF KIWD 191736Z 1918/2018 36007KT 6SM -SHSN OVC020 TEMPO 1920/1924 BKN045 FM200300 VRB03KT 6SM -SHSN OVC015 TEMPO 2003/2007 3SM -SHSN OVC009 FM201500 29005KT P6SM SCT017 BKN030